OIAG  Aghajari Airport

Add Bookmark

Iran

Status
Operational
Latitude Longitude
30° 44' 39" N 49° 40' 37" E
30.744400 49.677200
Local (DST + 5) UTC (GMT + 4)
Sep 2, 2014 11:15 Sep 2, 2014 06:45
Sunrise-Sunset Local UTC
Begin Civil Twilight 06:22 01:52
Sunrise 06:47 02:17
Sunset 07:34 15:04
End Civil Twilight 07:59 15:29

Current Weather

METAR Observed MVFR
OIAG 020500Z 00000KT 7000 SKC 36/27 Q1001 Tue, Sep 2, 2014 @ 05:00 UTC
(1 Hour, 45 Minutes ago)
Marginal Visual Flight Rules
Wind Visibility Clouds Conditions
Calm 7000 meters
  • Clear skies
  • No significant weather
Temperatures Readings Precipitation
Current Temp 36°C (97°F)
Dewpoint 27°C (81°F)
Heat Index 48°C (119°F)
Humidity 60%
Altimeter 29.56"Hg
Sea Level Pressure 1001mb
Field Elevation 95.14'
None Recorded

Additional weather within a 92.6km radius of OIAG

Map ICAO Location
OIAM 54.4km W (248°)

24 Hour Weather History

Loading
-

24 Hour Weather Graphs

Loading
-

CheckWX.com is intended as a tool to help pilots better visualize weather data. It is not intended as a substitute for an official weather briefing obtained from a Flight Service Station. CheckWX.com does not meet the FAA requirements for an official pre-flight weather briefing. Therefore, it's important that pilots still call and obtain an official FSS pre-flight weather briefing.